Petronila, Texas
Current Conditions -  °F | °C
As of 4:35 PM on Tuesday 21 Oct 2014 (Local Time) from KRBO Reporting Station
Moderate Rain Moderate Rain  
Wind Chill: 82°   Ceiling: Unl
Heat Index: 85°   Visibility: 10mi
Dew Point: 68°   Wind: 12mph
Humidity: 62%   Direction: 90°E
Pressure: 29.94"   Gusts: NA
Location:  27.7757°N, 97.7554°W
Report Text: KRBO 212135Z AUTO 09010KT 10SM RA SCT029 28/20 A2994 RMK AO2 T02790200
Loading
Personal Weather Stations






























Interactive Weather Map
Tropical Storm Tracking
New forecast layout! Learn more

10-Day Weather Forecast

Advertisements
Track Severe Weather on mobile